Alloy, WV

5:00 PM EDT on September 01, 2014 (GMT -0400)
KWVGLENF2 | Change Station
CLOSE
Current Station
Personal Weather Station
Location: Glen Ferris, WV
Elevation: 676 ft
Nearby Weather Stations

Elev 676 ft 38.15 °N, 81.22 °W | Updated 26 minutes ago

Mostly Cloudy
Mostly Cloudy
86.4 °F
Feels Like 93 °F
N
0.0
Wind Variable Wind from WNW
Gusts 0.0 mph

Today
High -- | Low -- °F
--% Chance of Precip.
Yesterday
High -- | Low -- °F
Precip. -- in
6:54 AM 7:54 PM
Waxing Crescent, 44% visible
Pressure 29.96 in
Visibility 10.0 miles
Clouds Few 4000 ft
Scattered Clouds 11000 ft
Scattered Clouds 25000 ft
Heat Index 93 °F
Dew Point 73 °F
Humidity 64%
Rainfall 0.00 in
Snow Depth Not available.
UV 3 out of 12
Pollen 6.90 out of 12
Air Quality Not available.
Flu Activity Not available.
METAR KCRW 012054Z 22008G19KT 10SM FEW040 SCT110 SCT250 29/20 A2999 RMK AO2 SLP146 T02940200 58017 $

More Conditions Fewer Conditions

Pressure 29.96 in
Visibility 10.0 miles
Clouds Few 4000 ft
Scattered Clouds 11000 ft
Scattered Clouds 25000 ft
Heat Index 93 °F
Dew Point 73 °F
Humidity 64%
Rainfall 0.00 in
Snow Depth Not available.
UV 3 out of 12
Pollen 6.90 out of 12
Air Quality Not available.
Flu Activity Not available.
METAR KCRW 012054Z 22008G19KT 10SM FEW040 SCT110 SCT250 29/20 A2999 RMK AO2 SLP146 T02940200 58017 $

More Conditions Fewer Conditions

10-Day Weather Forecast

Almanac

Astronomy

Sep. 01, 2014 Rise Set
Actual Time 6:54 AM EDT 7:54 PM EDT
Civil Twilight 6:27 AM EDT 8:21 PM EDT
Nautical Twilight 5:55 AM EDT 8:53 PM EDT
Astronomical Twilight 5:22 AM EDT 9:27 PM EDT
Moon 1:33 PM EDT No Moon Set
Length of Visible Light 13h 53m
Length of Day
13h 00m
Tomorrow will be 2m 22s shorter.
Waxing Crescent, 44% of the Moon is Illuminated
Today
Waxing Crescent
Sep 2
First Quarter
Sep 8
Full
Sep 15
Last Quarter
Sep 24
New

Today's Extremes

State Highs State Lows

Community

WunderPhotos

Upload Photos

1,749,407 photos uploaded!

WunderBlogs® & News

Nearby

Snow Depth

Station Depth Elevation
No new snow has been reported.

Earthquake Activity

City Distance Mag. Time & Date
No recent earthquake activity has been reported nearby.
Minimum magnitude displayed is 2.5.

Coastal Water Temperatures

Place Temperature
No Stations Reporting

Nearby Weather Stations